Time;durP1;ratioP1;P1;durP2;ratioP2;P2;SDS_P1;SDS_P2;PMS_P1;PMS_P2;Temp;Humidity;BMP_temperature;BMP_pressure;BME280_temperature;BME280_humidity;BME280_pressure;Samples;Min_cycle;Max_cycle;Signal;HPM_P1;HPM_P2
2021/08/17 00:00:45;;;;;;;9.73;3.83;;;;;;;;;;5036610;28;20190;-69
2021/08/17 00:03:10;;;;;;;7.07;2.47;;;;;;;;;;5030852;28;20185;-69
2021/08/17 00:05:36;;;;;;;9.60;2.73;;;;;;;;;;5038696;28;20206;-69
2021/08/17 00:08:01;;;;;;;10.20;2.80;;;;;;;;;;5034448;28;20204;-68
2021/08/17 00:10:26;;;;;;;8.07;3.40;;;;;;;;;;5018289;28;20186;-69
2021/08/17 00:12:52;;;;;;;8.67;2.57;;;;;;;;;;5039385;28;20599;-70
2021/08/17 00:15:17;;;;;;;11.43;2.67;;;;;;;;;;5034539;28;20208;-69
2021/08/17 00:17:42;;;;;;;4.17;2.30;;;;;;;;;;5043428;28;20185;-69
2021/08/17 00:20:08;;;;;;;6.77;2.30;;;;;;;;;;5033782;28;20179;-69
2021/08/17 00:22:36;;;;;;;7.70;2.50;;;;;;;;;;5037515;28;20300;-69
2021/08/17 00:25:02;;;;;;;6.97;2.60;;;;;;;;;;5043538;28;20213;-69
2021/08/17 00:27:27;;;;;;;7.37;2.50;;;;;;;;;;5036977;28;20174;-69
2021/08/17 00:29:52;;;;;;;10.40;2.80;;;;;;;;;;5029523;28;20648;-69
2021/08/17 00:32:17;;;;;;;9.07;2.47;;;;;;;;;;5032524;28;20189;-69
2021/08/17 00:34:43;;;;;;;6.67;2.47;;;;;;;;;;5033316;28;20609;-70
2021/08/17 00:37:08;;;;;;;9.87;3.20;;;;;;;;;;5035793;28;20273;-69
2021/08/17 00:39:34;;;;;;;7.50;3.07;;;;;;;;;;5037616;28;20607;-69
2021/08/17 00:42:02;;;;;;;9.90;3.23;;;;;;;;;;5039932;28;20296;-69
2021/08/17 00:44:27;;;;;;;5.97;2.60;;;;;;;;;;5039838;28;20261;-69
2021/08/17 00:46:53;;;;;;;7.33;3.23;;;;;;;;;;5045245;28;20260;-69
2021/08/17 00:49:25;;;;;;;8.50;2.90;;;;;;;;;;5037426;28;20197;-69
2021/08/17 00:51:54;;;;;;;6.17;3.20;;;;;;;;;;5041920;28;20701;-69
2021/08/17 00:54:20;;;;;;;5.43;3.37;;;;;;;;;;5044892;28;20182;-69
2021/08/17 00:56:46;;;;;;;7.37;2.77;;;;;;;;;;5040116;28;20182;-69
2021/08/17 00:59:11;;;;;;;8.20;2.30;;;;;;;;;;5045787;28;20265;-69
2021/08/17 01:01:37;;;;;;;6.93;2.73;;;;;;;;;;5039076;28;20388;-69
2021/08/17 01:04:06;;;;;;;7.87;2.40;;;;;;;;;;5019859;28;20189;-69
2021/08/17 01:06:31;;;;;;;9.53;3.53;;;;;;;;;;5041817;28;20213;-70
2021/08/17 01:08:57;;;;;;;6.87;2.60;;;;;;;;;;5036453;28;20702;-69
2021/08/17 01:11:22;;;;;;;8.93;3.23;;;;;;;;;;5036483;28;20197;-69
2021/08/17 01:13:50;;;;;;;8.50;2.70;;;;;;;;;;5022136;28;20728;-69
2021/08/17 01:16:16;;;;;;;10.57;2.90;;;;;;;;;;5022992;28;20189;-68
2021/08/17 01:18:41;;;;;;;9.77;2.67;;;;;;;;;;5016777;28;20186;-69
2021/08/17 01:21:08;;;;;;;10.47;2.80;;;;;;;;;;5020027;28;20562;-69
2021/08/17 01:23:33;;;;;;;7.63;3.67;;;;;;;;;;4995449;28;20232;-69
2021/08/17 01:25:58;;;;;;;19.13;3.33;;;;;;;;;;5034587;28;20205;-70
2021/08/17 01:28:23;;;;;;;5.50;2.70;;;;;;;;;;5040835;28;20319;-70
2021/08/17 01:30:57;;;;;;;5.43;2.47;;;;;;;;;;5036735;28;20194;-69
2021/08/17 01:33:22;;;;;;;9.43;2.50;;;;;;;;;;5041195;28;20269;-69
2021/08/17 01:35:47;;;;;;;6.93;2.70;;;;;;;;;;5033106;28;20277;-69
2021/08/17 01:38:12;;;;;;;5.63;2.57;;;;;;;;;;5042524;28;20742;-69
2021/08/17 01:40:37;;;;;;;7.40;2.60;;;;;;;;;;5038604;28;20256;-68
2021/08/17 01:43:03;;;;;;;5.10;3.30;;;;;;;;;;5039352;28;20176;-69
2021/08/17 01:45:28;;;;;;;5.10;2.43;;;;;;;;;;5037690;28;20201;-69
2021/08/17 01:47:54;;;;;;;6.53;2.60;;;;;;;;;;5040424;28;20270;-69
2021/08/17 01:50:19;;;;;;;9.30;3.57;;;;;;;;;;5024750;28;20655;-70
2021/08/17 01:52:44;;;;;;;7.37;2.70;;;;;;;;;;5040591;28;20205;-69
2021/08/17 01:55:10;;;;;;;9.80;2.80;;;;;;;;;;5045707;28;20228;-69
2021/08/17 01:57:36;;;;;;;8.23;3.33;;;;;;;;;;5035462;28;20174;-69
2021/08/17 02:00:01;;;;;;;7.90;2.77;;;;;;;;;;5035064;28;20182;-69
2021/08/17 02:02:26;;;;;;;8.30;2.97;;;;;;;;;;5036209;28;20206;-69
2021/08/17 02:04:51;;;;;;;13.77;4.43;;;;;;;;;;5039202;28;20260;-69
2021/08/17 02:07:16;;;;;;;5.87;2.80;;;;;;;;;;5043202;28;20182;-69
2021/08/17 02:09:42;;;;;;;9.00;2.87;;;;;;;;;;5025978;28;20177;-69
2021/08/17 02:12:07;;;;;;;4.37;2.50;;;;;;;;;;5040868;28;20230;-70
2021/08/17 02:14:32;;;;;;;5.57;2.60;;;;;;;;;;5045025;28;20542;-69
2021/08/17 02:16:57;;;;;;;6.27;2.80;;;;;;;;;;5043898;28;20174;-69
2021/08/17 02:19:22;;;;;;;7.30;3.40;;;;;;;;;;5041885;28;20173;-70
2021/08/17 02:21:48;;;;;;;4.27;2.90;;;;;;;;;;5050223;22;20710;-69
2021/08/17 02:24:13;;;;;;;6.80;3.30;;;;;;;;;;5072337;28;20284;-68
2021/08/17 02:26:38;;;;;;;10.10;3.63;;;;;;;;;;5065321;28;20197;-68
2021/08/17 02:29:03;;;;;;;7.50;2.87;;;;;;;;;;5065304;28;20207;-69
2021/08/17 02:31:29;;;;;;;5.93;2.77;;;;;;;;;;5041108;28;20196;-69
2021/08/17 02:33:55;;;;;;;6.10;3.00;;;;;;;;;;5057657;28;20700;-69
2021/08/17 02:36:20;;;;;;;8.43;3.10;;;;;;;;;;5051885;28;20181;-68
2021/08/17 02:38:45;;;;;;;7.00;3.20;;;;;;;;;;5052533;28;20181;-68
2021/08/17 02:41:10;;;;;;;7.28;3.28;;;;;;;;;;5051860;28;20270;-68
2021/08/17 02:43:35;;;;;;;7.65;3.42;;;;;;;;;;5052770;28;20181;-69
2021/08/17 02:46:01;;;;;;;7.03;2.73;;;;;;;;;;5050357;28;20606;-69
2021/08/17 02:48:26;;;;;;;8.60;3.87;;;;;;;;;;5052665;28;20250;-66
2021/08/17 02:50:51;;;;;;;8.27;3.60;;;;;;;;;;5053243;28;20173;-69
2021/08/17 02:53:16;;;;;;;8.53;3.50;;;;;;;;;;5051973;28;20181;-69
2021/08/17 02:55:42;;;;;;;10.20;4.77;;;;;;;;;;5050583;28;20177;-69
2021/08/17 02:58:09;;;;;;;8.90;4.00;;;;;;;;;;5050263;28;20255;-69
2021/08/17 03:00:35;;;;;;;7.27;3.87;;;;;;;;;;5048376;28;20178;-69
2021/08/17 03:03:00;;;;;;;8.30;3.67;;;;;;;;;;5052063;28;20636;-69
2021/08/17 03:05:25;;;;;;;9.40;3.75;;;;;;;;;;5051754;28;20189;-69
2021/08/17 03:07:52;;;;;;;9.37;4.03;;;;;;;;;;5050943;28;20600;-67
2021/08/17 03:10:17;;;;;;;6.30;3.53;;;;;;;;;;5047902;28;20268;-67
2021/08/17 03:12:42;;;;;;;6.82;3.40;;;;;;;;;;5054713;28;20699;-67
2021/08/17 03:15:08;;;;;;;6.50;3.50;;;;;;;;;;5055755;28;20640;-68
2021/08/17 03:17:37;;;;;;;8.20;3.60;;;;;;;;;;5055135;28;20240;-68
2021/08/17 03:20:02;;;;;;;5.87;3.73;;;;;;;;;;5053859;28;20196;-67
2021/08/17 03:22:27;;;;;;;7.68;4.03;;;;;;;;;;5052495;28;20741;-67
2021/08/17 03:24:52;;;;;;;6.60;3.43;;;;;;;;;;5052076;28;20205;-68
2021/08/17 03:27:17;;;;;;;8.30;3.83;;;;;;;;;;5048098;28;20187;-67
2021/08/17 03:29:43;;;;;;;8.80;3.70;;;;;;;;;;5049120;28;20177;-68
2021/08/17 03:32:08;;;;;;;7.13;3.38;;;;;;;;;;5051655;28;20694;-68
2021/08/17 03:34:33;;;;;;;12.13;4.10;;;;;;;;;;5050931;28;20177;-67
2021/08/17 03:36:58;;;;;;;9.43;4.10;;;;;;;;;;5053588;28;20662;-67
2021/08/17 03:39:23;;;;;;;10.82;3.85;;;;;;;;;;5049907;28;20257;-67
2021/08/17 03:41:48;;;;;;;6.40;3.22;;;;;;;;;;5052913;28;20551;-68
2021/08/17 03:44:14;;;;;;;7.13;3.78;;;;;;;;;;5051202;28;20281;-68
2021/08/17 03:46:39;;;;;;;5.25;3.03;;;;;;;;;;5036367;28;20216;-67
2021/08/17 03:49:04;;;;;;;4.95;3.20;;;;;;;;;;5055303;28;20184;-67
2021/08/17 03:51:29;;;;;;;6.88;3.70;;;;;;;;;;5051714;28;20229;-68
2021/08/17 03:53:54;;;;;;;6.10;3.50;;;;;;;;;;5051495;28;20174;-68
2021/08/17 03:56:20;;;;;;;10.23;3.70;;;;;;;;;;5051309;28;20185;-68
2021/08/17 03:58:45;;;;;;;5.55;3.65;;;;;;;;;;5050869;28;20636;-67
2021/08/17 04:01:10;;;;;;;7.15;3.67;;;;;;;;;;5051455;28;20189;-68
2021/08/17 04:03:35;;;;;;;10.20;4.40;;;;;;;;;;5049084;28;20684;-67
2021/08/17 04:06:00;;;;;;;5.95;3.65;;;;;;;;;;5051595;28;20205;-67
2021/08/17 04:08:27;;;;;;;7.57;4.00;;;;;;;;;;5045291;28;20191;-67
2021/08/17 04:10:52;;;;;;;5.85;3.42;;;;;;;;;;5044741;28;20417;-67
2021/08/17 04:13:17;;;;;;;8.52;3.85;;;;;;;;;;5050205;28;20203;-67
2021/08/17 04:15:42;;;;;;;8.98;4.85;;;;;;;;;;5048877;28;20555;-67
2021/08/17 04:18:07;;;;;;;6.82;3.30;;;;;;;;;;5046522;28;20245;-67
2021/08/17 04:20:33;;;;;;;11.00;4.72;;;;;;;;;;5031515;28;20181;-68
2021/08/17 04:22:59;;;;;;;6.85;3.78;;;;;;;;;;5047103;28;20237;-67
2021/08/17 04:25:24;;;;;;;9.27;4.67;;;;;;;;;;5049484;28;20244;-67
2021/08/17 04:27:49;;;;;;;10.80;4.67;;;;;;;;;;5047083;28;20186;-67
2021/08/17 04:30:14;;;;;;;9.82;5.00;;;;;;;;;;5049589;28;20177;-67
2021/08/17 04:32:39;;;;;;;9.85;5.68;;;;;;;;;;5050346;28;20200;-67
2021/08/17 04:35:05;;;;;;;10.68;5.72;;;;;;;;;;5049910;28;20177;-67
2021/08/17 04:37:30;;;;;;;8.85;5.72;;;;;;;;;;5043948;28;20616;-67
2021/08/17 04:39:55;;;;;;;13.35;5.88;;;;;;;;;;5049764;28;20651;-67
2021/08/17 04:42:21;;;;;;;9.15;5.32;;;;;;;;;;5050489;28;20202;-67
2021/08/17 04:44:46;;;;;;;10.52;6.07;;;;;;;;;;5049425;28;20712;-67
2021/08/17 04:47:11;;;;;;;16.15;7.43;;;;;;;;;;5045071;28;20173;-67
2021/08/17 04:49:36;;;;;;;13.25;6.97;;;;;;;;;;5052510;28;20204;-68
2021/08/17 04:52:01;;;;;;;14.70;7.82;;;;;;;;;;5055608;28;20200;-68
2021/08/17 04:54:27;;;;;;;12.23;8.10;;;;;;;;;;5049472;28;20174;-67
2021/08/17 04:56:52;;;;;;;13.80;7.60;;;;;;;;;;5034913;28;20666;-68
2021/08/17 04:59:17;;;;;;;16.40;8.35;;;;;;;;;;5049231;28;20178;-67
2021/08/17 05:01:42;;;;;;;13.48;8.45;;;;;;;;;;5051090;28;20691;-67
2021/08/17 05:04:08;;;;;;;17.38;8.63;;;;;;;;;;5050246;28;20176;-68
2021/08/17 05:06:34;;;;;;;17.00;8.85;;;;;;;;;;5066974;28;20205;-67
2021/08/17 05:08:59;;;;;;;19.27;9.13;;;;;;;;;;5064979;28;20192;-67
2021/08/17 05:11:24;;;;;;;15.77;8.63;;;;;;;;;;5072370;28;20268;-67
2021/08/17 05:13:49;;;;;;;13.98;8.38;;;;;;;;;;5072008;28;20215;-67
2021/08/17 05:16:14;;;;;;;15.90;9.53;;;;;;;;;;5069183;28;20200;-67
2021/08/17 05:18:39;;;;;;;14.63;8.90;;;;;;;;;;5070262;28;20826;-68
2021/08/17 05:21:05;;;;;;;14.25;9.45;;;;;;;;;;5068309;28;20213;-68
2021/08/17 05:23:30;;;;;;;14.40;8.40;;;;;;;;;;5075091;28;20176;-68
2021/08/17 05:25:55;;;;;;;15.45;9.02;;;;;;;;;;5073542;28;20208;-68
2021/08/17 05:28:21;;;;;;;16.25;9.85;;;;;;;;;;5053676;28;20188;-68
2021/08/17 05:30:46;;;;;;;17.30;8.50;;;;;;;;;;5050384;28;20170;-68
2021/08/17 05:33:12;;;;;;;16.58;10.07;;;;;;;;;;5053755;28;20195;-68
2021/08/17 05:35:38;;;;;;;17.15;10.32;;;;;;;;;;5055166;28;20227;-68
2021/08/17 05:38:04;;;;;;;17.08;10.00;;;;;;;;;;5055647;28;20182;-68
2021/08/17 05:40:29;;;;;;;17.05;9.00;;;;;;;;;;5052476;28;20227;-68
2021/08/17 05:42:54;;;;;;;18.60;9.68;;;;;;;;;;5051343;28;20198;-68
2021/08/17 05:45:19;;;;;;;19.17;9.55;;;;;;;;;;5054144;28;20734;-68
2021/08/17 05:47:45;;;;;;;16.77;10.40;;;;;;;;;;5056028;28;20189;-67
2021/08/17 05:50:11;;;;;;;17.58;9.98;;;;;;;;;;5061368;28;20655;-68
2021/08/17 05:52:37;;;;;;;17.15;9.95;;;;;;;;;;5052800;28;20269;-68
2021/08/17 05:55:03;;;;;;;17.70;10.00;;;;;;;;;;5050830;28;20617;-68
2021/08/17 05:57:28;;;;;;;17.88;10.57;;;;;;;;;;5052280;28;20182;-68
2021/08/17 05:59:53;;;;;;;15.87;9.83;;;;;;;;;;5050989;28;20192;-68
2021/08/17 06:02:18;;;;;;;19.73;10.07;;;;;;;;;;5050772;28;20454;-68
2021/08/17 06:04:44;;;;;;;16.17;10.02;;;;;;;;;;5053789;28;20406;-69
2021/08/17 06:07:09;;;;;;;16.95;10.18;;;;;;;;;;5039836;28;20181;-68
2021/08/17 06:09:34;;;;;;;17.30;9.77;;;;;;;;;;5049767;28;20174;-68
2021/08/17 06:12:01;;;;;;;19.70;10.25;;;;;;;;;;5052477;28;20280;-68
2021/08/17 06:14:26;;;;;;;16.90;10.07;;;;;;;;;;5054233;28;20529;-68
2021/08/17 06:16:51;;;;;;;21.48;11.50;;;;;;;;;;5040261;28;20192;-68
2021/08/17 06:19:17;;;;;;;23.02;11.50;;;;;;;;;;5055023;28;20213;-68
2021/08/17 06:21:42;;;;;;;18.30;11.05;;;;;;;;;;5054552;28;20255;-68
2021/08/17 06:24:07;;;;;;;22.60;12.02;;;;;;;;;;5051395;28;20196;-69
2021/08/17 06:26:33;;;;;;;20.13;11.10;;;;;;;;;;5053952;28;20284;-68
2021/08/17 06:28:58;;;;;;;23.02;12.23;;;;;;;;;;5048224;28;20265;-68
2021/08/17 06:31:23;;;;;;;19.55;10.25;;;;;;;;;;5052935;28;20193;-69
2021/08/17 06:33:49;;;;;;;20.13;11.20;;;;;;;;;;5052171;28;20261;-68
2021/08/17 06:36:14;;;;;;;18.33;11.30;;;;;;;;;;5050946;28;20205;-68
2021/08/17 06:38:40;;;;;;;23.00;12.20;;;;;;;;;;5052601;28;20410;-68
2021/08/17 06:41:05;;;;;;;25.70;12.48;;;;;;;;;;5057098;28;20639;-68
2021/08/17 06:43:30;;;;;;;19.30;11.00;;;;;;;;;;5051290;28;20189;-68
2021/08/17 06:45:55;;;;;;;22.85;12.43;;;;;;;;;;5052013;28;20455;-68
2021/08/17 06:48:20;;;;;;;18.27;11.52;;;;;;;;;;5058287;28;20267;-68
2021/08/17 06:50:46;;;;;;;21.80;13.05;;;;;;;;;;5054946;28;20172;-68
2021/08/17 06:53:11;;;;;;;20.35;11.45;;;;;;;;;;5052275;28;20181;-68
2021/08/17 06:55:36;;;;;;;23.05;11.50;;;;;;;;;;5051043;28;20230;-69
2021/08/17 06:58:02;;;;;;;19.77;12.27;;;;;;;;;;5049186;28;20184;-69
2021/08/17 07:00:27;;;;;;;22.75;10.52;;;;;;;;;;5053520;28;20327;-68
2021/08/17 07:02:52;;;;;;;17.33;10.38;;;;;;;;;;5051271;28;20221;-69
2021/08/17 07:05:17;;;;;;;16.43;10.00;;;;;;;;;;5051613;28;20204;-69
2021/08/17 07:07:42;;;;;;;21.73;11.17;;;;;;;;;;5050795;28;20542;-69
2021/08/17 07:10:09;;;;;;;16.83;10.77;;;;;;;;;;5049409;28;20434;-67
2021/08/17 07:12:34;;;;;;;20.00;10.27;;;;;;;;;;5049165;28;20862;-70
2021/08/17 07:14:59;;;;;;;16.10;9.57;;;;;;;;;;5056205;28;20209;-69
2021/08/17 07:17:24;;;;;;;19.67;10.15;;;;;;;;;;5031279;28;20423;-69
2021/08/17 07:19:50;;;;;;;15.77;9.52;;;;;;;;;;5033155;28;20236;-71
2021/08/17 07:22:15;;;;;;;16.10;9.70;;;;;;;;;;5053101;28;20215;-70
2021/08/17 07:24:40;;;;;;;21.70;9.83;;;;;;;;;;5054560;28;20514;-67
2021/08/17 07:27:05;;;;;;;12.43;8.20;;;;;;;;;;5052407;28;20513;-67
2021/08/17 07:29:30;;;;;;;15.10;8.67;;;;;;;;;;5046407;28;21018;-67
2021/08/17 07:31:55;;;;;;;15.30;9.03;;;;;;;;;;5028798;28;20474;-67
2021/08/17 07:34:21;;;;;;;16.53;9.00;;;;;;;;;;5050994;28;20418;-67
2021/08/17 07:36:46;;;;;;;20.90;9.32;;;;;;;;;;5053936;28;20433;-69
2021/08/17 07:39:12;;;;;;;17.63;8.30;;;;;;;;;;5050106;28;20551;-67
2021/08/17 07:41:38;;;;;;;17.80;8.88;;;;;;;;;;5050723;28;20709;-68
2021/08/17 07:44:03;;;;;;;14.00;8.18;;;;;;;;;;5034189;28;20198;-67
2021/08/17 07:46:28;;;;;;;17.58;8.95;;;;;;;;;;5033567;28;20651;-67
2021/08/17 07:48:54;;;;;;;17.02;8.20;;;;;;;;;;5054124;28;20208;-67
2021/08/17 07:51:19;;;;;;;11.63;7.22;;;;;;;;;;5050966;28;20193;-69
2021/08/17 07:53:44;;;;;;;12.82;6.95;;;;;;;;;;5048861;28;20596;-67
2021/08/17 07:56:10;;;;;;;10.95;7.05;;;;;;;;;;5048120;28;20181;-67
2021/08/17 07:58:35;;;;;;;12.55;6.65;;;;;;;;;;5036358;28;20185;-69
2021/08/17 08:01:00;;;;;;;14.63;7.07;;;;;;;;;;5049770;28;20724;-69
2021/08/17 08:03:26;;;;;;;12.10;7.13;;;;;;;;;;5052669;28;20682;-67
2021/08/17 08:05:51;;;;;;;9.77;6.63;;;;;;;;;;5049218;28;20193;-69
2021/08/17 08:08:16;;;;;;;13.32;7.15;;;;;;;;;;5050859;28;20185;-66
2021/08/17 08:10:41;;;;;;;14.85;6.90;;;;;;;;;;5046687;28;20411;-67
2021/08/17 08:13:06;;;;;;;13.10;6.97;;;;;;;;;;5051480;28;20251;-70
2021/08/17 08:15:32;;;;;;;13.50;6.80;;;;;;;;;;5050558;28;20185;-68
2021/08/17 08:17:57;;;;;;;12.05;7.07;;;;;;;;;;5049592;28;20223;-67
2021/08/17 08:20:22;;;;;;;13.13;6.35;;;;;;;;;;5044841;28;20209;-67
2021/08/17 08:22:49;;;;;;;11.90;6.55;;;;;;;;;;5053946;28;20216;-67
2021/08/17 08:25:16;;;;;;;11.85;6.00;;;;;;;;;;5051861;28;20257;-69
2021/08/17 08:27:42;;;;;;;11.88;5.93;;;;;;;;;;5051680;28;20555;-67
2021/08/17 08:30:07;;;;;;;10.25;5.70;;;;;;;;;;5051134;28;20246;-67
2021/08/17 08:32:33;;;;;;;9.73;5.13;;;;;;;;;;5050023;28;20208;-69
2021/08/17 08:34:58;;;;;;;11.07;6.03;;;;;;;;;;5050825;28;20705;-71
2021/08/17 08:37:23;;;;;;;9.38;5.03;;;;;;;;;;5055944;28;20190;-71
2021/08/17 08:39:48;;;;;;;9.73;5.27;;;;;;;;;;5053314;28;20204;-68
2021/08/17 08:42:13;;;;;;;7.95;5.38;;;;;;;;;;5050020;28;20450;-69
2021/08/17 08:44:39;;;;;;;8.50;5.13;;;;;;;;;;5050750;28;20208;-70
2021/08/17 08:47:04;;;;;;;10.48;5.13;;;;;;;;;;5045164;28;20200;-68
2021/08/17 08:49:30;;;;;;;11.18;5.22;;;;;;;;;;5046386;28;20177;-74
2021/08/17 08:51:56;;;;;;;7.50;4.35;;;;;;;;;;5052129;28;20284;-68
2021/08/17 08:54:21;;;;;;;8.75;4.78;;;;;;;;;;5041991;28;20718;-68
2021/08/17 08:56:46;;;;;;;7.03;4.70;;;;;;;;;;5045678;28;20189;-73
2021/08/17 08:59:12;;;;;;;9.60;5.03;;;;;;;;;;5035868;28;20657;-69
2021/08/17 09:01:37;;;;;;;8.65;5.00;;;;;;;;;;5030408;28;20210;-68
2021/08/17 09:04:02;;;;;;;7.13;4.63;;;;;;;;;;5047514;28;21776;-67
2021/08/17 09:06:32;;;;;;;8.45;4.68;;;;;;;;;;5052435;28;20577;-70
2021/08/17 09:09:03;;;;;;;12.07;5.25;;;;;;;;;;5047463;28;20200;-68
2021/08/17 09:11:28;;;;;;;12.25;5.70;;;;;;;;;;5048320;28;20197;-67
2021/08/17 09:13:53;;;;;;;7.50;4.35;;;;;;;;;;5050813;28;20173;-67
2021/08/17 09:16:26;;;;;;;6.78;4.63;;;;;;;;;;5051601;28;20621;-68
2021/08/17 09:18:52;;;;;;;7.93;4.55;;;;;;;;;;5041189;28;20178;-69
2021/08/17 09:21:30;;;;;;;8.13;4.88;;;;;;;;;;5038882;28;20213;-67
2021/08/17 09:23:56;;;;;;;11.70;5.57;;;;;;;;;;5079265;28;20174;-67
2021/08/17 09:26:22;;;;;;;8.30;4.50;;;;;;;;;;5077296;28;20207;-68
2021/08/17 09:28:53;;;;;;;10.98;4.25;;;;;;;;;;5072997;28;20493;-68
2021/08/17 09:31:38;;;;;;;6.45;4.80;;;;;;;;;;5074199;28;20209;-68
2021/08/17 09:34:05;;;;;;;12.68;4.85;;;;;;;;;;5074641;28;20195;-67
2021/08/17 09:36:37;;;;;;;13.55;5.47;;;;;;;;;;5075308;28;20322;-69
2021/08/17 09:39:03;;;;;;;6.28;3.90;;;;;;;;;;5072730;28;20191;-69
2021/08/17 09:41:28;;;;;;;11.65;5.78;;;;;;;;;;5073807;28;20212;-68
2021/08/17 09:44:07;;;;;;;11.70;4.50;;;;;;;;;;5057983;28;20264;-69
2021/08/17 09:46:33;;;;;;;11.07;5.00;;;;;;;;;;5050889;28;20200;-68
2021/08/17 09:49:17;;;;;;;9.43;4.50;;;;;;;;;;5054245;28;20268;-68
2021/08/17 09:51:42;;;;;;;8.60;5.10;;;;;;;;;;5052976;28;20254;-68
2021/08/17 09:54:15;;;;;;;12.32;5.35;;;;;;;;;;5060195;28;20572;-68
2021/08/17 09:56:40;;;;;;;9.57;4.32;;;;;;;;;;5049179;28;20185;-71
2021/08/17 09:59:05;;;;;;;9.18;4.30;;;;;;;;;;5049931;28;20255;-67
2021/08/17 10:01:30;;;;;;;7.05;4.45;;;;;;;;;;5050682;28;20203;-67
2021/08/17 10:03:57;;;;;;;7.78;4.53;;;;;;;;;;5050873;28;20662;-69
2021/08/17 10:06:22;;;;;;;7.97;4.22;;;;;;;;;;5048985;28;20261;-68
2021/08/17 10:08:48;;;;;;;6.43;4.20;;;;;;;;;;5049791;28;20260;-68
2021/08/17 10:11:13;;;;;;;9.57;5.72;;;;;;;;;;5056070;28;20193;-68
2021/08/17 10:13:39;;;;;;;8.38;4.85;;;;;;;;;;5051494;28;20188;-68
2021/08/17 10:16:04;;;;;;;9.73;4.95;;;;;;;;;;5055470;28;20205;-68
2021/08/17 10:18:34;;;;;;;6.97;4.13;;;;;;;;;;5054089;28;20186;-67
2021/08/17 10:21:01;;;;;;;7.97;4.03;;;;;;;;;;5053096;28;20251;-67
2021/08/17 10:23:26;;;;;;;8.00;3.80;;;;;;;;;;5052501;28;20268;-68
2021/08/17 10:25:59;;;;;;;9.60;4.15;;;;;;;;;;5050190;28;20291;-67
2021/08/17 10:28:24;;;;;;;11.93;5.38;;;;;;;;;;5051021;28;20181;-67
2021/08/17 10:30:49;;;;;;;6.03;4.13;;;;;;;;;;5049886;28;20180;-68
2021/08/17 10:33:34;;;;;;;6.65;4.10;;;;;;;;;;5050313;28;20173;-67
2021/08/17 10:35:59;;;;;;;5.97;3.50;;;;;;;;;;5051537;28;20231;-68
2021/08/17 10:38:25;;;;;;;8.57;4.00;;;;;;;;;;5048544;28;20177;-67
2021/08/17 10:43:24;;;;;;;5.45;3.20;;;;;;;;;;5051682;28;20475;-69
2021/08/17 10:45:54;;;;;;;7.40;4.00;;;;;;;;;;5050839;28;20553;-68
2021/08/17 10:48:48;;;;;;;5.05;3.70;;;;;;;;;;5050419;28;20205;-71
2021/08/17 10:51:23;;;;;;;4.22;3.78;;;;;;;;;;5027829;28;20217;-67
2021/08/17 10:53:48;;;;;;;7.63;5.35;;;;;;;;;;5048046;28;20715;-68
2021/08/17 10:56:21;;;;;;;7.22;4.68;;;;;;;;;;5050291;28;20186;-67
2021/08/17 10:58:48;;;;;;;7.40;4.40;;;;;;;;;;5034306;28;20431;-68
2021/08/17 11:01:33;;;;;;;9.20;5.25;;;;;;;;;;5052255;28;20956;-68
2021/08/17 11:04:18;;;;;;;9.35;4.57;;;;;;;;;;5050029;28;20281;-71
2021/08/17 11:06:47;;;;;;;9.15;5.13;;;;;;;;;;5050477;28;20201;-70
2021/08/17 11:09:22;;;;;;;5.97;4.43;;;;;;;;;;5050201;28;20494;-71
2021/08/17 11:11:58;;;;;;;5.25;4.35;;;;;;;;;;5045065;28;20208;-73
2021/08/17 11:14:25;;;;;;;7.07;4.32;;;;;;;;;;5046423;28;20166;-74
2021/08/17 11:16:54;;;;;;;8.32;4.53;;;;;;;;;;5052407;28;20200;-75
2021/08/17 11:19:21;;;;;;;8.02;6.32;;;;;;;;;;5050561;28;20188;-75
2021/08/17 11:21:50;;;;;;;6.20;4.88;;;;;;;;;;5034255;28;20231;-73
2021/08/17 11:24:18;;;;;;;8.00;4.60;;;;;;;;;;5050576;28;20177;-76
2021/08/17 11:26:45;;;;;;;6.05;4.72;;;;;;;;;;5051925;28;20201;-74
2021/08/17 11:29:14;;;;;;;6.60;5.25;;;;;;;;;;5049966;28;20654;-77
2021/08/17 11:31:43;;;;;;;6.43;4.88;;;;;;;;;;5051099;28;20198;-76
2021/08/17 11:34:19;;;;;;;6.93;4.97;;;;;;;;;;5051831;28;20177;-77
2021/08/17 11:36:55;;;;;;;13.65;5.60;;;;;;;;;;5050085;28;20181;-77
2021/08/17 11:39:22;;;;;;;7.57;4.38;;;;;;;;;;5035591;28;20248;-76
2021/08/17 11:41:48;;;;;;;7.63;4.70;;;;;;;;;;5051492;28;20204;-76
2021/08/17 11:44:14;;;;;;;10.70;5.60;;;;;;;;;;5054814;28;20249;-78
2021/08/17 11:46:39;;;;;;;6.45;4.68;;;;;;;;;;5052659;28;20228;-76
2021/08/17 11:49:20;;;;;;;5.82;4.90;;;;;;;;;;5056989;28;20620;-76
2021/08/17 11:51:45;;;;;;;6.82;5.35;;;;;;;;;;5052370;28;20197;-78
2021/08/17 11:54:14;;;;;;;6.38;5.18;;;;;;;;;;5035776;28;20231;-77
2021/08/17 11:56:40;;;;;;;7.40;5.82;;;;;;;;;;5052293;28;20265;-78
2021/08/17 11:59:05;;;;;;;5.78;4.72;;;;;;;;;;5054065;28;20238;-77
2021/08/17 12:01:30;;;;;;;7.63;5.18;;;;;;;;;;5051095;28;20729;-77
2021/08/17 12:04:08;;;;;;;6.87;5.20;;;;;;;;;;5053210;28;20181;-76
2021/08/17 12:06:33;;;;;;;7.97;6.07;;;;;;;;;;5034403;28;20457;-77
2021/08/17 12:09:19;;;;;;;9.15;5.80;;;;;;;;;;5053187;28;20177;-76
2021/08/17 12:11:58;;;;;;;6.47;5.05;;;;;;;;;;5041105;28;20204;-77
2021/08/17 12:14:23;;;;;;;5.70;4.85;;;;;;;;;;5061740;28;20169;-77
2021/08/17 12:16:58;;;;;;;6.07;4.50;;;;;;;;;;5054303;28;20595;-76
2021/08/17 12:19:24;;;;;;;6.32;4.10;;;;;;;;;;5051536;28;20551;-77
2021/08/17 12:21:49;;;;;;;6.65;5.28;;;;;;;;;;5035837;28;20210;-76
2021/08/17 12:24:26;;;;;;;5.72;3.95;;;;;;;;;;5053780;28;20180;-74
2021/08/17 12:26:55;;;;;;;5.88;4.53;;;;;;;;;;5036434;28;20212;-73
2021/08/17 12:29:23;;;;;;;10.68;5.28;;;;;;;;;;5049568;28;20182;-74
2021/08/17 12:31:49;;;;;;;5.85;4.53;;;;;;;;;;5035393;28;20526;-74
2021/08/17 12:34:14;;;;;;;5.88;4.55;;;;;;;;;;5046338;28;20182;-75
2021/08/17 12:36:40;;;;;;;6.00;4.97;;;;;;;;;;5052037;28;20205;-76
2021/08/17 12:39:14;;;;;;;4.93;3.63;;;;;;;;;;5043867;28;20214;-74
2021/08/17 12:41:45;;;;;;;5.30;4.03;;;;;;;;;;5056438;28;20207;-75
2021/08/17 12:44:14;;;;;;;5.10;4.20;;;;;;;;;;5051997;28;20226;-74
2021/08/17 12:46:55;;;;;;;7.45;4.60;;;;;;;;;;5049197;28;20201;-78
2021/08/17 12:49:20;;;;;;;6.72;4.93;;;;;;;;;;5053857;28;20177;-77
2021/08/17 12:51:46;;;;;;;7.97;6.25;;;;;;;;;;5053238;28;20218;-73
2021/08/17 12:54:11;;;;;;;6.75;5.15;;;;;;;;;;5053000;28;20185;-77
2021/08/17 12:56:36;;;;;;;11.80;8.23;;;;;;;;;;5047204;28;20182;-78
2021/08/17 12:59:04;;;;;;;7.75;5.75;;;;;;;;;;5054314;28;20189;-75
2021/08/17 13:01:29;;;;;;;9.57;7.65;;;;;;;;;;5050331;28;20197;-77
2021/08/17 13:03:56;;;;;;;9.77;6.95;;;;;;;;;;5055211;28;20184;-76
2021/08/17 13:06:21;;;;;;;6.10;4.97;;;;;;;;;;5035124;28;20210;-76
2021/08/17 13:08:46;;;;;;;8.10;7.00;;;;;;;;;;5033999;28;20272;-76
2021/08/17 13:11:11;;;;;;;7.72;6.60;;;;;;;;;;5054042;28;20433;-78
2021/08/17 13:13:36;;;;;;;5.43;4.93;;;;;;;;;;5050433;28;20181;-79
2021/08/17 13:16:02;;;;;;;6.28;5.15;;;;;;;;;;5055162;28;20226;-78
2021/08/17 13:18:27;;;;;;;6.93;5.18;;;;;;;;;;5050708;28;20173;-76
2021/08/17 13:20:54;;;;;;;4.83;4.33;;;;;;;;;;5053727;28;20173;-77
2021/08/17 13:23:19;;;;;;;4.07;3.67;;;;;;;;;;5054194;28;20438;-75
2021/08/17 13:25:45;;;;;;;4.95;4.22;;;;;;;;;;5053879;28;20205;-76
2021/08/17 13:28:10;;;;;;;4.15;3.75;;;;;;;;;;5048816;28;20553;-74
2021/08/17 13:30:35;;;;;;;7.15;3.65;;;;;;;;;;5054393;28;20658;-77
2021/08/17 13:33:00;;;;;;;5.93;4.10;;;;;;;;;;5051483;28;20194;-77
2021/08/17 13:35:25;;;;;;;5.40;3.83;;;;;;;;;;5039523;28;20231;-78
2021/08/17 13:37:51;;;;;;;4.20;3.50;;;;;;;;;;5059163;28;20172;-73
2021/08/17 13:40:16;;;;;;;5.07;3.20;;;;;;;;;;5074592;28;20173;-74
2021/08/17 13:42:41;;;;;;;3.47;3.10;;;;;;;;;;5082153;28;20570;-73
2021/08/17 13:45:07;;;;;;;4.22;3.83;;;;;;;;;;5063776;28;20173;-73
2021/08/17 13:47:32;;;;;;;4.00;3.30;;;;;;;;;;5060222;28;20280;-76
2021/08/17 13:49:58;;;;;;;3.72;2.80;;;;;;;;;;5082140;28;20237;-74
2021/08/17 13:52:23;;;;;;;3.83;3.08;;;;;;;;;;5083619;28;20215;-75
2021/08/17 13:54:48;;;;;;;4.53;2.85;;;;;;;;;;5080938;28;20216;-76
2021/08/17 13:57:13;;;;;;;2.95;2.65;;;;;;;;;;5076251;28;20261;-75
2021/08/17 13:59:38;;;;;;;2.95;2.70;;;;;;;;;;5077356;28;20189;-75
2021/08/17 14:02:05;;;;;;;2.55;2.25;;;;;;;;;;5080513;28;20211;-76
2021/08/17 14:04:31;;;;;;;2.58;2.03;;;;;;;;;;5078765;28;20190;-72
2021/08/17 14:06:56;;;;;;;2.67;1.75;;;;;;;;;;5073151;28;20205;-76
2021/08/17 14:09:21;;;;;;;2.30;2.07;;;;;;;;;;5041982;28;20200;-77
2021/08/17 14:11:46;;;;;;;3.38;1.88;;;;;;;;;;5060047;28;20455;-78
2021/08/17 14:14:12;;;;;;;2.92;2.65;;;;;;;;;;5058287;28;20184;-77
2021/08/17 14:16:38;;;;;;;2.35;2.00;;;;;;;;;;5044733;28;20213;-79
2021/08/17 14:19:04;;;;;;;2.20;1.90;;;;;;;;;;5060277;28;20356;-78
2021/08/17 14:21:29;;;;;;;2.67;2.47;;;;;;;;;;5072958;22;20217;-81
2021/08/17 14:23:54;;;;;;;3.25;2.95;;;;;;;;;;5063385;28;20177;-80
2021/08/17 14:26:24;;;;;;;3.58;2.35;;;;;;;;;;5069474;28;20204;-78
2021/08/17 14:28:53;;;;;;;2.92;2.55;;;;;;;;;;5068491;28;20178;-77
2021/08/17 14:31:18;;;;;;;3.58;2.33;;;;;;;;;;5072001;28;20563;-78
2021/08/17 14:33:44;;;;;;;2.47;2.28;;;;;;;;;;5065026;28;20181;-77